createdAt,value
2019-04-06T00:00:00.508Z,0.0
2019-04-06T00:15:05.571Z,0.0
2019-04-06T00:30:00.495Z,0.0
2019-04-06T00:45:01.724Z,0.0
2019-04-06T01:00:00.497Z,0.0
2019-04-06T01:15:00.615Z,0.0
2019-04-06T01:30:00.562Z,0.0
2019-04-06T01:45:00.568Z,0.0
2019-04-06T02:00:00.538Z,0.0
2019-04-06T02:15:05.748Z,0.0
2019-04-06T02:30:00.584Z,0.0
2019-04-06T02:45:00.615Z,0.0
2019-04-06T03:00:00.622Z,0.0
2019-04-06T03:15:00.813Z,0.0
2019-04-06T03:30:00.573Z,0.0
2019-04-06T03:45:01.173Z,0.1
2019-04-06T03:47:00.319Z,0.2
2019-04-06T03:48:00.352Z,0.3
2019-04-06T03:50:01.303Z,0.4
2019-04-06T03:51:00.320Z,0.5
2019-04-06T03:53:00.419Z,0.7
2019-04-06T03:54:00.318Z,0.8
2019-04-06T03:55:00.483Z,0.9
2019-04-06T03:56:00.343Z,1.1
2019-04-06T03:57:13.118Z,1.3
2019-04-06T03:58:02.066Z,1.6
2019-04-06T03:59:00.376Z,1.9
2019-04-06T04:00:00.528Z,2.1
2019-04-06T04:01:00.385Z,2.5
2019-04-06T04:02:01.017Z,2.9
2019-04-06T04:03:00.490Z,3.3
2019-04-06T04:04:01.659Z,3.9
2019-04-06T04:05:00.478Z,4.7
2019-04-06T04:06:00.357Z,5.5
2019-04-06T04:07:00.327Z,6.5
2019-04-06T04:08:00.328Z,7.7
2019-04-06T04:09:00.324Z,9.1
2019-04-06T04:10:00.996Z,10.7
2019-04-06T04:11:00.630Z,12.5
2019-04-06T04:12:00.324Z,14.7
2019-04-06T04:13:00.324Z,17.3
2019-04-06T04:14:00.348Z,20.4
2019-04-06T04:15:00.469Z,23.9
2019-04-06T04:16:01.172Z,28.1
2019-04-06T04:17:00.323Z,32.9
2019-04-06T04:18:00.328Z,38.7
2019-04-06T04:19:00.323Z,45.3
2019-04-06T04:20:00.760Z,53.0
2019-04-06T04:21:00.449Z,62.0
2019-04-06T04:22:00.359Z,72.5
2019-04-06T04:23:02.031Z,84.8
2019-04-06T04:24:00.477Z,99.0
2019-04-06T04:25:00.526Z,115.5
2019-04-06T04:26:00.349Z,134.4
2019-04-06T04:27:00.361Z,156.3
2019-04-06T04:28:00.495Z,181.3
2019-04-06T04:29:00.798Z,209.8
2019-04-06T04:30:00.535Z,242.3
2019-04-06T04:31:00.327Z,279.0
2019-04-06T04:32:00.370Z,320.3
2019-04-06T04:33:00.331Z,366.7
2019-04-06T04:34:00.327Z,418.5
2019-04-06T04:35:00.783Z,476.1
2019-04-06T04:36:02.193Z,539.6
2019-04-06T04:37:00.385Z,609.2
2019-04-06T04:38:00.379Z,685.1
2019-04-06T04:39:00.387Z,768.0
2019-04-06T04:40:00.471Z,858.2
2019-04-06T04:41:00.327Z,956.3
2019-04-06T04:42:00.383Z,1062.7
2019-04-06T04:43:00.424Z,1177.4
2019-04-06T04:44:00.326Z,1300.5
2019-04-06T04:45:00.502Z,1430.8
2019-04-06T04:46:00.805Z,1569.8
2019-04-06T04:47:00.939Z,1721.1
2019-04-06T04:48:00.595Z,1886.9
2019-04-06T04:49:00.337Z,2066.5
2019-04-06T04:50:00.485Z,2259.9
2019-04-06T04:51:00.334Z,2469.6
2019-04-06T04:52:00.340Z,2697.3
2019-04-06T04:53:00.363Z,2942.7
2019-04-06T04:54:00.977Z,3206.7
2019-04-06T04:55:00.490Z,3490.5
2019-04-06T04:56:01.864Z,3794.9
2019-04-06T04:57:00.582Z,4119.3
2019-04-06T04:58:00.364Z,4466.5
2019-04-06T04:59:00.345Z,4838.3
2019-04-06T05:00:00.579Z,5238.2
2019-04-06T05:01:00.344Z,5665.5
2019-04-06T05:02:00.341Z,6117.8
2019-04-06T05:03:00.359Z,6592.3
2019-04-06T05:04:00.340Z,7088.9
2019-04-06T05:05:00.537Z,7606.9
2019-04-06T05:06:00.337Z,8144.6
2019-04-06T05:07:00.332Z,8700.7
2019-04-06T05:08:00.331Z,9272.7
2019-04-06T05:09:00.506Z,9857.6
2019-04-06T05:10:00.487Z,10455.9
2019-04-06T05:11:00.367Z,11066.4
2019-04-06T05:12:00.462Z,11687.4
2019-04-06T05:13:00.334Z,12316.3
2019-04-06T05:14:00.821Z,12952.1
2019-04-06T05:15:00.481Z,13604.8
2019-04-06T05:16:00.359Z,14249.8
2019-04-06T05:17:00.336Z,14886.2
2019-04-06T05:18:00.335Z,15533.3
2019-04-06T05:19:00.357Z,16189.7
2019-04-06T05:20:02.176Z,16866.3
2019-04-06T05:21:00.390Z,17565.7
2019-04-06T05:22:00.351Z,18291.3
2019-04-06T05:23:00.350Z,19030.4
2019-04-06T05:24:00.353Z,19782.7
2019-04-06T05:25:02.405Z,20562.1
2019-04-06T05:26:00.373Z,21367.1
2019-04-06T05:27:00.373Z,22178.9
2019-04-06T05:28:00.363Z,22993.5
2019-04-06T05:29:00.745Z,23815.5
2019-04-06T05:30:00.488Z,24630.8
2019-04-06T05:31:00.364Z,25459.3
2019-04-06T05:32:00.340Z,26306.6
2019-04-06T05:33:00.590Z,27150.0
2019-04-06T05:34:00.885Z,28000.6
2019-04-06T05:35:00.493Z,28819.5
2019-04-06T05:36:00.373Z,29578.3
2019-04-06T05:37:03.023Z,30259.1
2019-04-06T05:38:00.341Z,30892.0
2019-04-06T05:39:02.179Z,31496.0
2019-04-06T05:40:00.505Z,32064.5
2019-04-06T05:41:00.368Z,32613.5
2019-04-06T05:42:00.340Z,33157.7
2019-04-06T05:43:00.367Z,33695.1
2019-04-06T05:44:00.509Z,34200.3
2019-04-06T05:45:00.561Z,34708.4
2019-04-06T05:46:00.346Z,35202.9
2019-04-06T05:47:00.343Z,35642.1
2019-04-06T05:48:00.377Z,36033.0
2019-04-06T05:49:00.961Z,36399.5
2019-04-06T05:50:00.639Z,36837.0
2019-04-06T05:51:00.342Z,37314.6
2019-04-06T05:52:00.344Z,37842.9
2019-04-06T05:53:00.693Z,38384.8
2019-04-06T05:54:00.667Z,38927.3
2019-04-06T05:55:00.489Z,39458.3
2019-04-06T05:56:00.345Z,39989.9
2019-04-06T05:57:00.580Z,40491.3
2019-04-06T05:58:03.858Z,40989.2
2019-04-06T05:59:00.349Z,41527.5
2019-04-06T06:00:01.403Z,42044.1
2019-04-06T06:01:00.394Z,42590.6
2019-04-06T06:02:00.527Z,43169.3
2019-04-06T06:03:00.353Z,43816.6
2019-04-06T06:04:00.384Z,44503.7
2019-04-06T06:05:01.337Z,45105.3
2019-04-06T06:06:00.350Z,45683.8
2019-04-06T06:07:00.376Z,46288.5
2019-04-06T06:08:00.356Z,46896.1
2019-04-06T06:09:00.380Z,47488.3
2019-04-06T06:10:00.815Z,48070.7
2019-04-06T06:11:00.356Z,48634.9
2019-04-06T06:12:00.392Z,49244.7
2019-04-06T06:13:00.355Z,49866.1
2019-04-06T06:14:00.392Z,50508.5
2019-04-06T06:15:00.694Z,51182.7
2019-04-06T06:16:00.641Z,51883.4
2019-04-06T06:17:00.776Z,52601.3
2019-04-06T06:18:00.356Z,53309.9
2019-04-06T06:19:00.384Z,53991.9
2019-04-06T06:20:00.500Z,54729.1
2019-04-06T06:21:00.353Z,55512.3
2019-04-06T06:22:00.353Z,56289.2
2019-04-06T06:23:00.357Z,57098.9
2019-04-06T06:24:02.696Z,57964.4
2019-04-06T06:25:00.614Z,58881.5
2019-04-06T06:26:00.355Z,59766.9
2019-04-06T06:27:00.357Z,60592.5
2019-04-06T06:28:00.429Z,61371.6
2019-04-06T06:29:00.361Z,62070.1
2019-04-06T06:30:00.647Z,62705.7
2019-04-06T06:31:00.365Z,63251.9
2019-04-06T06:32:00.363Z,63751.2
2019-04-06T06:33:00.394Z,64189.9
2019-04-06T06:34:00.362Z,64581.0
2019-04-06T06:35:00.756Z,64900.9
2019-04-06T06:36:00.360Z,65151.4
2019-04-06T06:37:00.362Z,65339.1
2019-04-06T06:38:00.393Z,65470.0
2019-04-06T06:39:00.360Z,65535.0
2019-04-06T06:45:00.572Z,65535.0
2019-04-06T07:00:00.656Z,65535.0
2019-04-06T07:15:00.585Z,65535.0
2019-04-06T07:30:00.534Z,65535.0
2019-04-06T07:45:00.596Z,65535.0
2019-04-06T08:00:00.607Z,65535.0
2019-04-06T08:15:01.053Z,65535.0
2019-04-06T08:30:02.243Z,65535.0
2019-04-06T08:45:00.753Z,65535.0
2019-04-06T09:00:00.662Z,65535.0
2019-04-06T09:15:00.773Z,65535.0
2019-04-06T09:30:00.583Z,65535.0
2019-04-06T09:45:00.648Z,65535.0
2019-04-06T10:00:00.785Z,65535.0
2019-04-06T10:15:00.676Z,65535.0
2019-04-06T10:30:00.708Z,65535.0
2019-04-06T10:45:00.954Z,65535.0
2019-04-06T11:00:03.118Z,65535.0
2019-04-06T11:15:00.693Z,65535.0
2019-04-06T11:30:11.806Z,65535.0
2019-04-06T11:45:01.082Z,65535.0
2019-04-06T12:00:00.737Z,65535.0
2019-04-06T12:15:00.739Z,65535.0
2019-04-06T12:30:00.889Z,65535.0
2019-04-06T12:45:00.746Z,65535.0
2019-04-06T13:00:00.754Z,65535.0
2019-04-06T13:15:01.407Z,65535.0
2019-04-06T13:30:00.632Z,65535.0
2019-04-06T13:45:03.749Z,65535.0
2019-04-06T14:00:00.709Z,65535.0
2019-04-06T14:15:00.951Z,65535.0
2019-04-06T14:30:00.643Z,65535.0
2019-04-06T14:45:01.283Z,65535.0
2019-04-06T15:00:01.250Z,65535.0
2019-04-06T15:15:00.738Z,65535.0
2019-04-06T15:30:00.691Z,65535.0
2019-04-06T15:45:00.907Z,65535.0
2019-04-06T16:00:00.897Z,65535.0
2019-04-06T16:07:00.794Z,65507.7
2019-04-06T16:08:00.983Z,65443.0
2019-04-06T16:09:00.532Z,65343.1
2019-04-06T16:10:01.012Z,65214.3
2019-04-06T16:11:00.623Z,65054.8
2019-04-06T16:12:00.680Z,64859.1
2019-04-06T16:13:00.680Z,64620.7
2019-04-06T16:14:01.421Z,64339.2
2019-04-06T16:15:00.978Z,64017.1
2019-04-06T16:16:00.527Z,63651.9
2019-04-06T16:17:00.679Z,63250.3
2019-04-06T16:18:00.754Z,62808.7
2019-04-06T16:19:00.593Z,62334.0
2019-04-06T16:20:00.534Z,61825.5
2019-04-06T16:21:00.756Z,61272.3
2019-04-06T16:22:00.767Z,60714.9
2019-04-06T16:23:00.552Z,60154.1
2019-04-06T16:24:02.922Z,59591.3
2019-04-06T16:25:00.527Z,59015.7
2019-04-06T16:26:00.875Z,58436.0
2019-04-06T16:27:01.081Z,57854.1
2019-04-06T16:28:00.668Z,57273.7
2019-04-06T16:29:00.527Z,56693.7
2019-04-06T16:30:00.848Z,56114.1
2019-04-06T16:31:00.529Z,55539.4
2019-04-06T16:32:10.674Z,54963.1
2019-04-06T16:33:00.560Z,54379.8
2019-04-06T16:34:00.528Z,53793.7
2019-04-06T16:35:01.224Z,53203.9
2019-04-06T16:36:00.898Z,52618.6
2019-04-06T16:37:01.055Z,52032.0
2019-04-06T16:38:00.552Z,51450.2
2019-04-06T16:39:00.529Z,50871.7
2019-04-06T16:40:00.531Z,50293.1
2019-04-06T16:41:02.357Z,49711.8
2019-04-06T16:42:00.866Z,49127.7
2019-04-06T16:43:00.694Z,48546.6
2019-04-06T16:44:00.575Z,47968.0
2019-04-06T16:45:00.534Z,47391.3
2019-04-06T16:46:00.531Z,46808.0
2019-04-06T16:47:00.680Z,46220.6
2019-04-06T16:48:00.659Z,45639.7
2019-04-06T16:49:00.694Z,45053.0
2019-04-06T16:50:00.530Z,44465.1
2019-04-06T16:51:00.529Z,43879.1
2019-04-06T16:52:00.675Z,43289.2
2019-04-06T16:53:00.564Z,42695.8
2019-04-06T16:54:00.533Z,42092.8
2019-04-06T16:55:00.533Z,41493.6
2019-04-06T16:56:00.535Z,40892.9
2019-04-06T16:57:00.698Z,40296.7
2019-04-06T16:58:00.651Z,39699.6
2019-04-06T16:59:01.120Z,39101.6
2019-04-06T17:00:00.530Z,38502.2
2019-04-06T17:01:00.531Z,37909.4
2019-04-06T17:02:00.644Z,37321.7
2019-04-06T17:03:00.821Z,36736.7
2019-04-06T17:04:00.532Z,36153.5
2019-04-06T17:05:00.533Z,35570.7
2019-04-06T17:06:00.531Z,34988.2
2019-04-06T17:07:00.729Z,34405.9
2019-04-06T17:08:09.593Z,33825.1
2019-04-06T17:09:00.538Z,33252.5
2019-04-06T17:10:00.544Z,32681.2
2019-04-06T17:11:00.561Z,32111.1
2019-04-06T17:12:00.682Z,31540.6
2019-04-06T17:13:00.622Z,30971.7
2019-04-06T17:14:00.542Z,30407.1
2019-04-06T17:15:00.643Z,29845.6
2019-04-06T17:16:00.728Z,29284.6
2019-04-06T17:17:01.389Z,28724.1
2019-04-06T17:18:00.658Z,28165.9
2019-04-06T17:19:00.659Z,27610.3
2019-04-06T17:20:00.811Z,27057.4
2019-04-06T17:21:00.537Z,26506.9
2019-04-06T17:22:00.868Z,25956.7
2019-04-06T17:23:00.671Z,25408.8
2019-04-06T17:24:00.799Z,24860.9
2019-04-06T17:25:00.609Z,24314.3
2019-04-06T17:26:00.537Z,23769.4
2019-04-06T17:27:01.584Z,23225.7
2019-04-06T17:28:00.848Z,22683.8
2019-04-06T17:29:00.541Z,22142.2
2019-04-06T17:30:01.145Z,21601.7
2019-04-06T17:31:00.540Z,21062.8
2019-04-06T17:32:00.814Z,20524.6
2019-04-06T17:33:00.852Z,19986.1
2019-04-06T17:34:00.541Z,19448.5
2019-04-06T17:35:00.541Z,18911.3
2019-04-06T17:36:00.642Z,18374.7
2019-04-06T17:37:00.701Z,17839.5
2019-04-06T17:38:00.556Z,17306.3
2019-04-06T17:39:00.567Z,16774.9
2019-04-06T17:40:00.555Z,16245.5
2019-04-06T17:41:00.556Z,15719.7
2019-04-06T17:42:01.150Z,15197.2
2019-04-06T17:43:00.826Z,14678.3
2019-04-06T17:44:01.086Z,14164.5
2019-04-06T17:45:01.055Z,13654.6
2019-04-06T17:46:00.558Z,13149.9
2019-04-06T17:47:00.706Z,12651.0
2019-04-06T17:48:00.556Z,12158.3
2019-04-06T17:49:01.056Z,11672.7
2019-04-06T17:50:00.782Z,11194.1
2019-04-06T17:51:00.957Z,10722.9
2019-04-06T17:52:00.870Z,10259.5
2019-04-06T17:53:00.552Z,9803.6
2019-04-06T17:54:00.618Z,9355.9
2019-04-06T17:55:00.548Z,8916.7
2019-04-06T17:56:00.548Z,8486.4
2019-04-06T17:57:00.695Z,8065.4
2019-04-06T17:58:00.553Z,7653.9
2019-04-06T17:59:00.805Z,7252.5
2019-04-06T18:00:00.649Z,6861.7
2019-04-06T18:01:00.605Z,6481.5
2019-04-06T18:02:01.110Z,6112.3
2019-04-06T18:03:00.890Z,5754.5
2019-04-06T18:04:00.732Z,5408.1
2019-04-06T18:05:00.911Z,5073.3
2019-04-06T18:06:00.553Z,4750.3
2019-04-06T18:07:00.741Z,4439.7
2019-04-06T18:08:03.653Z,4141.1
2019-04-06T18:09:00.558Z,3854.8
2019-04-06T18:10:00.557Z,3580.9
2019-04-06T18:11:00.557Z,3319.3
2019-04-06T18:12:00.802Z,3069.9
2019-04-06T18:13:00.794Z,2833.0
2019-04-06T18:14:00.797Z,2608.1
2019-04-06T18:15:00.913Z,2395.5
2019-04-06T18:16:00.558Z,2194.9
2019-04-06T18:17:00.712Z,2005.9
2019-04-06T18:18:00.753Z,1828.5
2019-04-06T18:19:00.964Z,1662.3
2019-04-06T18:20:00.735Z,1507.1
2019-04-06T18:21:00.686Z,1362.4
2019-04-06T18:22:00.704Z,1228.0
2019-04-06T18:23:00.561Z,1103.4
2019-04-06T18:24:00.964Z,988.4
2019-04-06T18:25:01.026Z,882.7
2019-04-06T18:26:00.563Z,785.7
2019-04-06T18:27:00.710Z,697.1
2019-04-06T18:28:00.599Z,616.5
2019-04-06T18:29:00.650Z,543.4
2019-04-06T18:30:00.562Z,477.3
2019-04-06T18:31:00.564Z,417.9
2019-04-06T18:32:00.862Z,364.7
2019-04-06T18:33:02.390Z,317.3
2019-04-06T18:34:00.608Z,275.2
2019-04-06T18:35:00.567Z,238.1
2019-04-06T18:36:00.612Z,205.5
2019-04-06T18:37:00.721Z,176.9
2019-04-06T18:38:00.567Z,151.9
2019-04-06T18:39:00.809Z,130.1
2019-04-06T18:40:00.580Z,111.1
2019-04-06T18:41:00.580Z,94.6
2019-04-06T18:42:00.725Z,80.4
2019-04-06T18:43:00.851Z,68.1
2019-04-06T18:44:00.616Z,57.5
2019-04-06T18:45:00.981Z,48.5
2019-04-06T18:46:00.580Z,40.8
2019-04-06T18:47:00.828Z,34.3
2019-04-06T18:48:00.953Z,28.8
2019-04-06T18:49:01.024Z,24.3
2019-04-06T18:50:00.586Z,20.5
2019-04-06T18:51:00.939Z,17.3
2019-04-06T18:52:00.730Z,14.6
2019-04-06T18:53:00.996Z,12.3
2019-04-06T18:54:00.645Z,10.5
2019-04-06T18:55:00.983Z,8.9
2019-04-06T18:56:02.893Z,7.5
2019-04-06T18:57:00.726Z,6.4
2019-04-06T18:58:09.573Z,5.4
2019-04-06T18:59:00.583Z,4.6
2019-04-06T19:00:00.822Z,3.9
2019-04-06T19:01:00.732Z,3.3
2019-04-06T19:02:00.753Z,2.9
2019-04-06T19:03:10.521Z,2.5
2019-04-06T19:04:01.055Z,2.1
2019-04-06T19:05:00.618Z,1.9
2019-04-06T19:06:00.656Z,1.6
2019-04-06T19:07:00.728Z,1.3
2019-04-06T19:08:00.587Z,1.1
2019-04-06T19:09:00.638Z,0.9
2019-04-06T19:10:00.665Z,0.8
2019-04-06T19:11:00.587Z,0.7
2019-04-06T19:12:01.151Z,0.5
2019-04-06T19:14:00.653Z,0.4
2019-04-06T19:15:00.626Z,0.3
2019-04-06T19:17:00.934Z,0.2
2019-04-06T19:18:02.092Z,0.1
